Monroe Regional Airport
KMLU : now visible

Airfield :











YOU CAN JOIN US ON...

 
LOGIN :

Register | Disclaimer

   EN    FR    IT 

 









Legend :    VFR   Marginal VFR   IFR   Intensive IFR   Very Intensive IFR
Visi :
Ceiling :
>= 8 km
>= 3000ft
5 to 8 km
1000 to 3000 ft
1500m to 5 km
500 to 1000 ft
800 to 1500m
200 to 500 ft
< 800m
< 200 ft
Symbols :   Thunderstorms  Fog  Heavy snow  Heavy precipitations  Wind > 20 kt






- Airport Elevation : 79 ft
- IATA code : MLU


KMLU - Monroe Regional

CURRENT METAR :
  • 250853Z AUTO VRB03KT 10SM CLR 23/21 A2986 RMK AO2 SLP110 T02280206 50000

EXPIRED METARs :
  • 250753Z AUTO VRB03KT 10SM SCT065 23/21 A2986 RMK AO2 SLP111 T02280206
  • 250653Z AUTO 00000KT 10SM CLR 23/21 A2987 RMK AO2 SLP113 T02280206
  • 250553Z AUTO 00000KT 10SM CLR 23/21 A2986 RMK AO2 SLP109 T02330206 10289 20233 403170194 58008

TAF KMLU
Valid from the 25 at 06:00 until the 26 at 06:00 UTC


250520Z 2506/2606 VRB05KT P6SM VCTS BKN040CB
TEMPO 2506/2510 3SM -TSRA BR OVC015CB
FM251200 13004KT P6SM SCT015 BKN150 OVC250
TEMPO 2512/2514 BKN015
FM251600 15008KT P6SM BKN025 BKN250
FM251900 14007KT P6SM VCTS BKN040CB BKN250
TEMPO 2520/2524 VRB15G30KT 3SM TSRA BR OVC030CB
FM260000 VRB06KT P6SM VCTS OVC035CB
TEMPO 2600/2604 VRB15G30KT 3SM TSRA BR OVC015CB
KZFW FIR / North America



MET'MAP, your aeronautical weather chart ! - Copyright ORBIFLY December 2007 - Disclaimer

ORBIFLY MET'MAP TEAM :

Programming & Development : Alexandra Zaïnal
Concept & original design : Baudouin d'Aumeries
Assistance for programming : Marc-Olivier Méhu
Technical & hardware support : Manuel Goepfert

Contact : metmap@orbifly.com




SOURCES & CREDITS :

   NOAA       Earth
Advisory